createdAt,value
2019-02-21T06:55:44.955Z,32.20
2019-02-21T06:56:44.932Z,29.30
2019-02-21T06:57:44.939Z,29.50
2019-02-21T06:58:44.944Z,29.20
2019-02-21T06:59:45.403Z,28.00
2019-02-21T07:00:46.222Z,27.60
2019-02-21T07:01:44.952Z,27.00
2019-02-21T07:02:44.956Z,26.30
2019-02-21T07:03:44.963Z,27.30
2019-02-21T07:04:44.966Z,27.30
2019-02-21T07:05:44.975Z,28.30
2019-02-21T07:06:44.973Z,27.10
2019-02-21T07:07:44.987Z,27.10
2019-02-21T07:08:44.979Z,27.30
2019-02-21T07:09:44.987Z,26.90
2019-02-21T07:10:44.987Z,26.60
2019-02-21T07:11:46.083Z,27.20
2019-02-21T07:12:44.996Z,27.10
2019-02-21T07:13:44.996Z,26.40
2019-02-21T07:14:45.005Z,26.70
2019-02-21T07:15:45.028Z,28.60
2019-02-21T07:16:45.008Z,25.60
2019-02-21T07:17:49.186Z,25.10
2019-02-21T07:18:45.018Z,27.10
2019-02-21T07:19:45.019Z,27.30
2019-02-21T07:20:45.022Z,27.00
2019-02-21T07:21:45.028Z,26.60
2019-02-21T07:22:45.034Z,26.70
2019-02-21T07:23:45.027Z,27.40
2019-02-21T07:24:45.032Z,26.10
2019-02-21T07:25:45.044Z,26.80
2019-02-21T07:26:45.051Z,27.20
2019-02-21T07:27:45.114Z,26.20
2019-02-21T07:28:45.056Z,26.10
2019-02-21T07:29:45.055Z,25.60
2019-02-21T07:30:45.062Z,26.20
2019-02-21T07:31:45.065Z,25.30
2019-02-21T07:32:45.077Z,27.30
2019-02-21T07:33:45.078Z,24.90
2019-02-21T07:34:45.078Z,25.30
2019-02-21T07:35:45.083Z,24.80
2019-02-21T07:36:45.090Z,24.50
2019-02-21T07:37:45.099Z,24.90
2019-02-21T07:38:45.089Z,24.80
2019-02-21T07:39:45.101Z,24.40
2019-02-21T07:40:45.102Z,25.50
2019-02-21T07:41:45.105Z,25.10
2019-02-21T07:42:45.125Z,25.20
2019-02-21T07:43:45.136Z,25.00
2019-02-21T07:44:45.463Z,25.50
2019-02-21T07:45:45.136Z,24.00
2019-02-21T07:46:46.314Z,25.10
2019-02-21T07:47:45.136Z,24.80
2019-02-21T07:48:45.139Z,25.00
2019-02-21T07:49:45.149Z,25.00
2019-02-21T07:50:45.159Z,23.90
2019-02-21T07:51:45.154Z,24.30
2019-02-21T07:52:45.168Z,24.50
2019-02-21T07:53:45.165Z,23.10
2019-02-21T07:54:45.164Z,23.60
2019-02-21T07:55:45.195Z,24.10
2019-02-21T07:56:45.181Z,23.80
2019-02-21T07:57:45.196Z,24.70
2019-02-21T07:58:45.208Z,24.10
2019-02-21T07:59:45.195Z,23.70
2019-02-21T08:00:45.203Z,23.50
2019-02-21T08:01:45.219Z,23.50
2019-02-21T08:02:45.213Z,23.90
2019-02-21T08:03:48.313Z,24.10
2019-02-21T08:04:45.226Z,23.90
2019-02-21T08:05:45.232Z,23.10
2019-02-21T08:06:45.233Z,22.50
2019-02-21T08:07:45.247Z,24.10
2019-02-21T08:08:45.246Z,23.20
2019-02-21T08:09:45.256Z,23.30
2019-02-21T08:10:45.269Z,21.60
2019-02-21T08:11:45.280Z,23.30
2019-02-21T08:12:45.283Z,24.10
2019-02-21T08:13:45.287Z,22.20
2019-02-21T08:14:45.312Z,22.00
2019-02-21T08:15:45.342Z,23.20
2019-02-21T08:16:45.316Z,22.20
2019-02-21T08:17:45.318Z,20.90
2019-02-21T08:18:45.321Z,22.70
2019-02-21T08:19:45.332Z,22.90
2019-02-21T08:20:45.339Z,24.00
2019-02-21T08:21:45.438Z,24.40
2019-02-21T08:22:45.359Z,24.20
2019-02-21T08:23:50.456Z,25.10
2019-02-21T08:24:45.362Z,24.70
2019-02-21T08:25:45.368Z,23.70
2019-02-21T08:26:45.376Z,24.00
2019-02-21T08:27:45.398Z,24.70
2019-02-21T08:28:45.382Z,24.90
2019-02-21T08:29:45.385Z,24.30
2019-02-21T08:30:45.402Z,25.70
2019-02-21T08:31:45.411Z,24.50
2019-02-21T08:32:45.413Z,24.70
2019-02-21T08:33:55.448Z,25.80
2019-02-21T08:34:48.057Z,25.00
2019-02-21T08:35:45.434Z,24.60
2019-02-21T08:36:45.435Z,25.00
2019-02-21T08:37:45.435Z,24.90
2019-02-21T08:38:45.446Z,26.10
2019-02-21T08:39:45.454Z,25.70
2019-02-21T08:40:45.459Z,25.10
2019-02-21T08:41:45.464Z,25.30
2019-02-21T08:42:45.482Z,25.30
2019-02-21T08:43:45.483Z,25.10
2019-02-21T08:44:45.481Z,25.00
2019-02-21T08:45:45.494Z,26.10
2019-02-21T08:46:45.508Z,25.90
2019-02-21T08:47:45.496Z,26.00
2019-02-21T08:48:47.726Z,26.00
2019-02-21T08:49:45.512Z,26.50
2019-02-21T08:50:45.518Z,26.60
2019-02-21T08:51:45.530Z,26.30
2019-02-21T08:52:45.535Z,27.20
2019-02-21T08:53:45.530Z,28.20
2019-02-21T08:54:45.540Z,27.50
2019-02-21T08:55:45.545Z,26.40
2019-02-21T08:56:45.554Z,25.70
2019-02-21T08:57:45.569Z,26.40
2019-02-21T08:58:45.598Z,27.30
2019-02-21T08:59:45.577Z,26.30
2019-02-21T09:00:45.580Z,26.80
2019-02-21T09:01:45.582Z,27.10
2019-02-21T09:02:45.600Z,25.80
2019-02-21T09:03:45.591Z,25.40
2019-02-21T09:04:45.607Z,27.60
2019-02-21T09:05:45.603Z,25.90
2019-02-21T09:06:45.612Z,26.50
2019-02-21T09:07:46.569Z,27.60
2019-02-21T09:08:45.625Z,25.70
2019-02-21T09:09:45.628Z,26.30
2019-02-21T09:10:45.629Z,25.50
2019-02-21T09:11:45.649Z,27.50
2019-02-21T09:12:48.465Z,25.60
2019-02-21T09:13:45.648Z,26.30
2019-02-21T09:14:45.663Z,25.60
2019-02-21T09:15:46.579Z,26.40
2019-02-21T09:16:45.672Z,26.20
2019-02-21T09:17:45.673Z,28.10
2019-02-21T09:18:45.686Z,26.70
2019-02-21T09:19:45.691Z,28.00
2019-02-21T09:20:47.722Z,26.80
2019-02-21T09:21:45.702Z,27.00
2019-02-21T09:22:45.721Z,28.80
2019-02-21T09:23:45.711Z,26.60
2019-02-21T09:24:45.712Z,27.20
2019-02-21T09:25:45.716Z,27.60
2019-02-21T09:26:45.738Z,26.50
2019-02-21T09:27:45.740Z,27.70
2019-02-21T09:28:45.740Z,26.40
2019-02-21T09:29:45.749Z,27.50
2019-02-21T09:30:45.785Z,27.30
2019-02-21T09:31:45.768Z,27.20
2019-02-21T09:32:45.774Z,27.00
2019-02-21T09:33:45.767Z,27.30
2019-02-21T09:34:45.778Z,28.30
2019-02-21T09:35:45.782Z,28.10
2019-02-21T09:36:45.788Z,29.10
2019-02-21T09:37:45.810Z,27.80
2019-02-21T09:38:45.839Z,28.20
2019-02-21T09:39:45.808Z,28.30
2019-02-21T09:40:45.829Z,27.50
2019-02-21T09:41:45.828Z,27.10
2019-02-21T09:42:45.819Z,28.40
2019-02-21T09:43:45.838Z,28.50
2019-02-21T09:44:45.837Z,29.00
2019-02-21T09:45:45.837Z,27.80
2019-02-21T09:46:45.853Z,27.00
2019-02-21T09:47:45.855Z,29.20
2019-02-21T09:48:45.859Z,30.10
2019-02-21T09:49:45.861Z,30.20
2019-02-21T09:50:45.882Z,31.30
2019-02-21T09:51:45.871Z,30.20
2019-02-21T09:52:45.885Z,30.90
2019-02-21T09:53:45.889Z,29.60
2019-02-21T09:54:47.522Z,31.40
2019-02-21T09:55:45.894Z,29.10
2019-02-21T09:56:52.927Z,30.30
2019-02-21T09:57:45.919Z,31.70
2019-02-21T09:58:46.093Z,30.40
2019-02-21T09:59:45.932Z,31.10
2019-02-21T10:00:45.932Z,30.40
2019-02-21T10:01:45.940Z,30.50
2019-02-21T10:02:45.952Z,29.70
2019-02-21T10:03:45.957Z,28.20
2019-02-21T10:04:45.959Z,30.70
2019-02-21T10:05:45.976Z,31.20
2019-02-21T10:06:45.974Z,29.20
2019-02-21T10:07:45.979Z,30.80
2019-02-21T10:08:45.989Z,31.30
2019-02-21T10:09:46.014Z,31.30
2019-02-21T10:10:46.001Z,29.80
2019-02-21T10:12:46.017Z,32.50
2019-02-21T10:13:46.033Z,29.80
2019-02-21T10:14:46.033Z,30.30
2019-02-21T10:15:47.131Z,33.50
2019-02-21T10:16:46.131Z,32.00
2019-02-21T10:17:46.061Z,31.30
2019-02-21T10:18:46.069Z,32.00
2019-02-21T10:19:46.071Z,31.80
2019-02-21T10:20:46.073Z,30.70
2019-02-21T10:21:46.088Z,32.50
2019-02-21T10:22:46.095Z,31.50
2019-02-21T10:23:46.101Z,30.50
2019-02-21T10:24:46.115Z,32.30
2019-02-21T10:25:46.111Z,32.00
2019-02-21T10:26:46.118Z,30.60
2019-02-21T10:27:46.129Z,31.00
2019-02-21T10:28:46.137Z,31.90
2019-02-21T10:29:46.140Z,31.90
2019-02-21T10:30:46.156Z,34.30
2019-02-21T10:31:46.162Z,34.40
2019-02-21T10:32:46.182Z,32.30
2019-02-21T10:33:47.294Z,33.20
2019-02-21T10:34:46.190Z,32.70
2019-02-21T10:35:46.193Z,33.30
2019-02-21T10:36:46.203Z,33.30
2019-02-21T10:37:46.203Z,33.10
2019-02-21T10:38:46.218Z,33.20
2019-02-21T10:39:47.900Z,32.20
2019-02-21T10:40:46.234Z,31.80
2019-02-21T10:41:46.241Z,29.90
2019-02-21T10:42:46.255Z,32.40
2019-02-21T10:43:46.259Z,33.10
2019-02-21T10:44:46.265Z,33.40
2019-02-21T10:45:48.158Z,29.50
2019-02-21T10:46:46.312Z,29.60
2019-02-21T10:47:46.297Z,32.00
2019-02-21T10:48:46.306Z,31.70
2019-02-21T10:49:46.307Z,31.80
2019-02-21T10:50:46.320Z,32.50
2019-02-21T10:51:46.318Z,30.90
2019-02-21T10:52:46.331Z,30.90
2019-02-21T10:53:46.340Z,29.20
2019-02-21T10:54:46.347Z,32.40
2019-02-21T10:55:48.073Z,31.20
2019-02-21T10:56:46.356Z,32.30
2019-02-21T10:57:46.365Z,32.90
2019-02-21T10:58:46.391Z,31.20
2019-02-21T10:59:47.127Z,30.60
2019-02-21T11:00:46.395Z,30.80
2019-02-21T11:01:46.401Z,31.30
2019-02-21T11:02:46.400Z,31.90
2019-02-21T11:03:46.424Z,29.90
2019-02-21T11:04:54.457Z,30.80
2019-02-21T11:05:46.430Z,31.10
2019-02-21T11:06:46.443Z,32.40
2019-02-21T11:07:46.444Z,31.20
2019-02-21T11:08:46.460Z,30.80
2019-02-21T11:09:46.467Z,28.80
2019-02-21T11:10:46.487Z,31.50
2019-02-21T11:11:46.483Z,29.70
2019-02-21T11:12:46.494Z,32.50
2019-02-21T11:13:46.503Z,32.80
2019-02-21T11:14:47.731Z,32.40
2019-02-21T11:15:46.528Z,32.50
2019-02-21T11:16:46.530Z,31.10
2019-02-21T11:17:46.558Z,30.50
2019-02-21T11:18:46.541Z,30.20
2019-02-21T11:19:46.556Z,32.40
2019-02-21T11:20:46.584Z,30.30
2019-02-21T11:21:46.567Z,33.00
2019-02-21T11:22:46.583Z,32.00
2019-02-21T11:23:46.586Z,30.50
2019-02-21T11:24:46.600Z,31.10
2019-02-21T11:25:46.604Z,31.10
2019-02-21T11:26:46.619Z,32.20
2019-02-21T11:27:46.618Z,30.40
2019-02-21T11:28:47.388Z,30.20
2019-02-21T11:29:46.641Z,30.10
2019-02-21T11:30:46.644Z,30.00
2019-02-21T11:31:46.656Z,30.70
2019-02-21T11:32:46.663Z,29.10
2019-02-21T11:33:46.669Z,30.30
2019-02-21T11:34:46.679Z,29.40
2019-02-21T11:35:46.697Z,27.40
2019-02-21T11:36:46.705Z,27.70
2019-02-21T11:37:47.505Z,29.60
2019-02-21T11:38:46.708Z,29.80
2019-02-21T11:39:46.725Z,28.60
2019-02-21T11:40:46.734Z,27.80
2019-02-21T11:41:46.782Z,27.60
2019-02-21T11:42:46.746Z,27.40
2019-02-21T11:43:46.755Z,27.80
2019-02-21T11:44:46.768Z,27.00
2019-02-21T11:45:53.937Z,30.30
2019-02-21T11:46:46.777Z,30.20
2019-02-21T11:47:46.788Z,30.90
2019-02-21T11:48:46.819Z,30.20
2019-02-21T11:49:46.801Z,31.00
2019-02-21T11:50:46.806Z,31.30
2019-02-21T11:51:46.819Z,30.00
2019-02-21T11:52:46.823Z,30.40
2019-02-21T11:53:46.828Z,30.40
2019-02-21T11:54:46.836Z,30.40
2019-02-21T11:55:46.853Z,30.10
2019-02-21T11:56:46.865Z,29.60
2019-02-21T11:57:46.860Z,29.80
2019-02-21T11:58:46.865Z,30.40
2019-02-21T11:59:46.881Z,31.40
2019-02-21T12:00:46.890Z,30.70
2019-02-21T12:01:46.894Z,26.70
2019-02-21T12:02:46.909Z,28.10
2019-02-21T12:03:46.935Z,27.60
2019-02-21T12:04:46.935Z,27.90
2019-02-21T12:05:46.948Z,27.50
2019-02-21T12:06:47.753Z,27.20
2019-02-21T12:07:46.967Z,27.60
2019-02-21T12:08:46.982Z,26.50
2019-02-21T12:09:46.987Z,26.60
2019-02-21T12:10:47.002Z,26.90
2019-02-21T12:11:47.032Z,27.60
2019-02-21T12:12:47.034Z,26.00
2019-02-21T12:13:47.038Z,26.90
2019-02-21T12:14:47.050Z,26.20
2019-02-21T12:15:47.062Z,27.10
2019-02-21T12:16:47.083Z,25.20
2019-02-21T12:17:47.080Z,23.40
2019-02-21T12:18:47.099Z,21.80
2019-02-21T12:19:47.106Z,23.20
2019-02-21T12:20:47.123Z,24.00
2019-02-21T12:21:58.432Z,25.00
2019-02-21T12:22:47.138Z,24.40
2019-02-21T12:23:47.150Z,24.60
2019-02-21T12:24:47.157Z,22.00
2019-02-21T12:25:47.165Z,22.30
2019-02-21T12:26:47.174Z,21.90
2019-02-21T12:27:47.190Z,23.10
2019-02-21T12:28:47.217Z,23.40
2019-02-21T12:29:47.213Z,22.70
2019-02-21T12:30:47.227Z,21.60
2019-02-21T12:31:47.240Z,21.20
2019-02-21T12:32:47.250Z,19.90
2019-02-21T12:33:47.260Z,19.10
2019-02-21T12:34:47.253Z,20.30
2019-02-21T12:35:47.269Z,20.90
2019-02-21T12:36:47.283Z,20.80
2019-02-21T12:37:47.292Z,18.90
2019-02-21T12:38:47.302Z,18.80
2019-02-21T12:39:47.307Z,19.70
2019-02-21T12:40:47.322Z,19.10
2019-02-21T12:41:47.336Z,18.40
2019-02-21T12:42:47.338Z,20.20
2019-02-21T12:43:47.352Z,19.00
2019-02-21T12:44:47.954Z,20.00
2019-02-21T12:45:47.367Z,20.00
2019-02-21T12:46:47.373Z,18.60
2019-02-21T12:47:52.946Z,20.30
2019-02-21T12:48:47.395Z,20.60
2019-02-21T12:49:47.414Z,21.70
2019-02-21T12:50:47.411Z,21.50
2019-02-21T12:51:47.425Z,20.50
2019-02-21T12:52:47.431Z,22.60
2019-02-21T12:53:47.444Z,22.50
2019-02-21T12:54:47.459Z,21.10
2019-02-21T12:55:47.458Z,19.60
2019-02-21T12:56:47.467Z,21.60
2019-02-21T12:57:47.478Z,20.90
2019-02-21T12:58:47.493Z,21.30
2019-02-21T12:59:47.492Z,22.10
2019-02-21T13:00:47.516Z,21.20
2019-02-21T13:01:47.512Z,20.60
2019-02-21T13:02:47.522Z,20.10
2019-02-21T13:03:47.533Z,20.50
2019-02-21T13:04:47.547Z,20.20
2019-02-21T13:05:47.548Z,21.00
2019-02-21T13:06:47.566Z,21.10
2019-02-21T13:07:47.566Z,19.40
2019-02-21T13:08:47.577Z,18.20
2019-02-21T13:09:47.592Z,19.20
2019-02-21T13:10:47.598Z,17.70
2019-02-21T13:11:47.607Z,18.30
2019-02-21T13:12:47.611Z,18.90
2019-02-21T13:13:47.622Z,18.50
2019-02-21T13:14:47.636Z,18.20
2019-02-21T13:15:47.651Z,17.10
2019-02-21T13:16:47.651Z,16.60
2019-02-21T13:17:47.669Z,16.00
2019-02-21T13:18:47.673Z,15.00
2019-02-21T13:19:47.677Z,16.40
2019-02-21T13:20:47.693Z,15.50
2019-02-21T13:21:47.696Z,16.70
2019-02-21T13:22:47.705Z,15.10
2019-02-21T13:23:47.719Z,15.80
2019-02-21T13:24:47.728Z,14.70
2019-02-21T13:25:47.733Z,16.20
2019-02-21T13:26:47.743Z,15.60
2019-02-21T13:27:47.749Z,15.80
2019-02-21T13:28:47.761Z,15.50
2019-02-21T13:29:47.764Z,17.10
2019-02-21T13:30:47.784Z,18.10
2019-02-21T13:31:47.795Z,17.10
2019-02-21T13:32:47.800Z,17.30
2019-02-21T13:33:47.818Z,16.70
2019-02-21T13:34:47.818Z,18.40
2019-02-21T13:35:52.801Z,17.00
2019-02-21T13:36:47.844Z,16.80
2019-02-21T13:37:47.841Z,17.10
2019-02-21T13:38:47.850Z,18.20
2019-02-21T13:39:47.851Z,18.20
2019-02-21T13:40:49.627Z,17.30
2019-02-21T13:41:47.877Z,18.10
2019-02-21T13:42:47.881Z,18.60
2019-02-21T13:43:47.895Z,17.40
2019-02-21T13:44:47.896Z,16.80
2019-02-21T13:45:47.909Z,16.30
2019-02-21T13:46:47.918Z,18.60
2019-02-21T13:47:47.924Z,17.80
2019-02-21T13:48:47.933Z,18.30
2019-02-21T13:49:47.945Z,17.30
2019-02-21T13:50:47.946Z,17.10
2019-02-21T13:51:47.966Z,17.60
2019-02-21T13:52:47.956Z,17.40
2019-02-21T13:53:47.993Z,19.60
2019-02-21T13:54:47.997Z,17.30
2019-02-21T13:55:50.842Z,18.50
2019-02-21T13:56:48.000Z,18.40
2019-02-21T13:57:48.009Z,18.90
2019-02-21T13:58:48.011Z,18.10
2019-02-21T13:59:48.022Z,17.20
2019-02-21T14:00:48.031Z,18.00
2019-02-21T14:01:48.041Z,16.80
2019-02-21T14:02:48.050Z,15.50
2019-02-21T14:03:48.055Z,16.60
2019-02-21T14:04:48.063Z,16.00
2019-02-21T14:05:48.076Z,17.10
2019-02-21T14:06:48.092Z,17.10
2019-02-21T14:07:48.099Z,16.80
2019-02-21T14:08:48.096Z,16.00
2019-02-21T14:09:48.111Z,16.20
2019-02-21T14:10:48.127Z,16.30
2019-02-21T14:11:48.139Z,16.10
2019-02-21T14:12:48.154Z,16.50
2019-02-21T14:13:48.125Z,17.30
2019-02-21T14:14:48.147Z,16.10
2019-02-21T14:15:48.147Z,15.80
2019-02-21T14:16:48.164Z,14.50
2019-02-21T14:17:48.170Z,16.10
2019-02-21T14:18:48.181Z,15.40
2019-02-21T14:19:48.189Z,15.70
2019-02-21T14:20:48.286Z,15.60
2019-02-21T14:21:48.266Z,16.30
2019-02-21T14:22:48.202Z,15.90
2019-02-21T14:23:48.223Z,16.10
2019-02-21T14:24:48.228Z,16.30
2019-02-21T14:25:48.238Z,16.20
2019-02-21T14:26:48.250Z,16.80
2019-02-21T14:27:48.249Z,16.50
2019-02-21T14:28:48.262Z,16.50
2019-02-21T14:29:48.263Z,16.60
2019-02-21T14:30:48.287Z,16.50
2019-02-21T14:31:48.292Z,16.40
2019-02-21T14:32:48.290Z,15.30
2019-02-21T14:33:48.302Z,17.20
2019-02-21T14:34:48.322Z,17.10
2019-02-21T14:35:48.313Z,17.10
2019-02-21T14:36:48.316Z,17.80
2019-02-21T14:37:48.343Z,17.40
2019-02-21T14:38:48.355Z,16.70
2019-02-21T14:39:48.348Z,17.40
2019-02-21T14:40:48.356Z,17.10
2019-02-21T14:41:48.369Z,16.80
2019-02-21T14:42:48.369Z,16.80
2019-02-21T14:43:48.384Z,16.90
2019-02-21T14:44:49.550Z,16.90
2019-02-21T14:45:48.391Z,18.20
2019-02-21T14:46:50.280Z,18.90
2019-02-21T14:47:48.410Z,18.50
2019-02-21T14:48:48.428Z,15.50
2019-02-21T14:49:48.423Z,16.90
2019-02-21T14:50:48.437Z,16.80
2019-02-21T14:51:48.441Z,16.40
2019-02-21T14:52:48.515Z,17.00
2019-02-21T14:53:48.459Z,16.30
2019-02-21T14:54:48.470Z,16.60
2019-02-21T14:55:48.475Z,16.10
2019-02-21T14:56:48.490Z,16.10
2019-02-21T14:57:48.487Z,16.20
2019-02-21T14:58:48.496Z,17.10
2019-02-21T14:59:48.519Z,16.50
2019-02-21T15:00:48.528Z,16.80
2019-02-21T15:01:48.516Z,17.90
2019-02-21T15:02:48.544Z,16.90
2019-02-21T15:03:48.539Z,17.70
2019-02-21T15:04:48.546Z,17.60
2019-02-21T15:05:48.565Z,17.90
2019-02-21T15:06:48.567Z,16.10
2019-02-21T15:07:48.579Z,16.60
2019-02-21T15:08:48.589Z,16.60
2019-02-21T15:09:48.585Z,14.80
2019-02-21T15:10:48.595Z,13.30
2019-02-21T15:11:48.600Z,14.80
2019-02-21T15:12:48.616Z,13.10
2019-02-21T15:13:48.618Z,13.90
2019-02-21T15:14:48.636Z,13.60
2019-02-21T15:15:48.624Z,14.50
2019-02-21T15:16:48.648Z,14.20
2019-02-21T15:17:48.652Z,13.80
2019-02-21T15:18:48.661Z,14.70
2019-02-21T15:19:48.672Z,13.40
2019-02-21T15:20:48.686Z,13.30
2019-02-21T15:21:48.695Z,12.30
2019-02-21T15:22:48.694Z,12.70
2019-02-21T15:23:48.709Z,12.30
2019-02-21T15:24:48.714Z,12.90
2019-02-21T15:25:48.729Z,11.70
2019-02-21T15:26:48.728Z,11.70
2019-02-21T15:27:48.721Z,11.60
2019-02-21T15:28:48.738Z,11.50
2019-02-21T15:29:48.742Z,12.20
2019-02-21T15:30:48.754Z,13.50
2019-02-21T15:31:48.761Z,12.00
2019-02-21T15:32:48.768Z,12.10
2019-02-21T15:33:48.777Z,12.30
2019-02-21T15:34:48.785Z,11.90
2019-02-21T15:35:48.805Z,11.80
2019-02-21T15:36:48.803Z,10.40
2019-02-21T15:37:48.807Z,10.30
2019-02-21T15:38:48.926Z,11.60
2019-02-21T15:39:48.830Z,10.90
2019-02-21T15:40:48.841Z,10.70
2019-02-21T15:41:48.840Z,11.70
2019-02-21T15:42:48.850Z,10.20
2019-02-21T15:43:48.853Z,11.50
2019-02-21T15:44:48.889Z,10.70
2019-02-21T15:45:48.866Z,11.00
2019-02-21T15:46:48.891Z,11.30
2019-02-21T15:47:48.889Z,11.50
2019-02-21T15:48:48.977Z,13.00
2019-02-21T15:49:48.905Z,12.00
2019-02-21T15:50:48.914Z,10.20
2019-02-21T15:51:48.914Z,11.10
2019-02-21T15:52:48.926Z,10.10
2019-02-21T15:53:48.934Z,10.40
2019-02-21T15:54:48.947Z,11.00
2019-02-21T15:55:48.954Z,11.50
2019-02-21T15:56:48.962Z,10.20
2019-02-21T15:57:48.961Z,10.20
2019-02-21T15:58:48.969Z,10.00
2019-02-21T15:59:48.981Z,10.60
2019-02-21T16:00:48.976Z,10.40
2019-02-21T16:01:48.992Z,9.90
2019-02-21T16:02:48.996Z,10.00
2019-02-21T16:03:49.021Z,10.30
2019-02-21T16:04:49.013Z,10.20
2019-02-21T16:05:49.020Z,9.30
2019-02-21T16:06:51.843Z,10.30
2019-02-21T16:07:49.047Z,10.40
2019-02-21T16:08:49.045Z,10.00
2019-02-21T16:09:49.065Z,9.80
2019-02-21T16:10:49.057Z,9.90
2019-02-21T16:11:49.073Z,10.30
2019-02-21T16:12:49.639Z,11.30
2019-02-21T16:13:51.285Z,11.90
2019-02-21T16:14:49.083Z,11.50
2019-02-21T16:15:49.098Z,11.30
2019-02-21T16:16:49.106Z,11.60
2019-02-21T16:17:49.109Z,12.40
2019-02-21T16:18:49.117Z,12.90
2019-02-21T16:19:49.145Z,12.80
2019-02-21T16:20:49.123Z,13.60
2019-02-21T16:21:49.151Z,12.10
2019-02-21T16:22:49.144Z,12.90
2019-02-21T16:23:49.157Z,12.50
2019-02-21T16:24:49.152Z,12.50
2019-02-21T16:25:49.164Z,12.00
2019-02-21T16:26:49.158Z,12.30
2019-02-21T16:27:49.165Z,12.60
2019-02-21T16:28:49.184Z,13.10
2019-02-21T16:29:49.189Z,13.10
2019-02-21T16:30:49.196Z,14.10
2019-02-21T16:31:49.209Z,12.70
2019-02-21T16:32:49.211Z,13.90
2019-02-21T16:33:49.224Z,14.00
2019-02-21T16:34:49.221Z,14.10
2019-02-21T16:35:49.233Z,13.40
2019-02-21T16:36:49.242Z,12.90
2019-02-21T16:37:49.248Z,12.90
2019-02-21T16:38:49.250Z,13.30
2019-02-21T16:39:49.267Z,14.50
2019-02-21T16:40:49.344Z,15.00
2019-02-21T16:41:49.283Z,14.20
2019-02-21T16:42:49.277Z,14.50
2019-02-21T16:43:49.291Z,15.60
2019-02-21T16:44:49.300Z,15.60
2019-02-21T16:45:53.759Z,19.00
2019-02-21T16:46:49.312Z,18.40
2019-02-21T16:47:49.320Z,18.30
2019-02-21T16:48:49.334Z,17.50
2019-02-21T16:49:49.334Z,18.80
2019-02-21T16:50:49.331Z,17.00
2019-02-21T16:51:49.343Z,17.80
2019-02-21T16:52:49.357Z,17.20
2019-02-21T16:53:49.354Z,17.30
2019-02-21T16:54:49.370Z,16.80
2019-02-21T16:55:49.374Z,19.60
2019-02-21T16:56:49.376Z,17.40
2019-02-21T16:57:49.390Z,18.60
2019-02-21T16:58:49.397Z,16.60
2019-02-21T16:59:49.401Z,17.70
2019-02-21T17:00:54.704Z,17.10
2019-02-21T17:01:49.410Z,17.10
2019-02-21T17:02:49.419Z,18.00
2019-02-21T17:03:49.425Z,18.80
2019-02-21T17:04:49.442Z,17.40
2019-02-21T17:05:49.442Z,16.80
2019-02-21T17:06:49.521Z,16.80
2019-02-21T17:07:49.451Z,17.10
2019-02-21T17:08:49.459Z,18.80
2019-02-21T17:09:49.461Z,18.60
2019-02-21T17:10:49.468Z,18.70
2019-02-21T17:11:49.477Z,19.30
2019-02-21T17:13:49.492Z,19.10
2019-02-21T17:14:49.498Z,18.90
2019-02-21T17:15:49.509Z,19.50
2019-02-21T17:16:49.515Z,18.40
2019-02-21T17:17:49.579Z,19.20
2019-02-21T17:18:49.526Z,18.60
2019-02-21T17:19:49.531Z,18.30
2019-02-21T17:20:49.538Z,19.90
2019-02-21T17:21:49.540Z,21.40
2019-02-21T17:22:49.558Z,18.50
2019-02-21T17:23:49.575Z,19.20
2019-02-21T17:24:49.578Z,21.10
2019-02-21T17:25:49.577Z,18.50
2019-02-21T17:26:49.580Z,20.70
2019-02-21T17:27:49.592Z,20.50
2019-02-21T17:28:49.591Z,22.20
2019-02-21T17:29:49.591Z,22.40
2019-02-21T17:30:49.613Z,23.80
2019-02-21T17:31:49.648Z,22.80
2019-02-21T17:32:49.613Z,24.00
2019-02-21T17:33:49.629Z,24.30
2019-02-21T17:34:49.633Z,21.90
2019-02-21T17:35:49.650Z,24.10
2019-02-21T17:36:49.642Z,23.60
2019-02-21T17:37:49.661Z,24.20
2019-02-21T17:38:49.665Z,24.10
2019-02-21T17:39:49.665Z,24.60
2019-02-21T17:40:49.674Z,24.60
2019-02-21T17:41:49.682Z,24.10
2019-02-21T17:42:49.689Z,24.80
2019-02-21T17:43:49.706Z,24.60
2019-02-21T17:44:49.702Z,24.20
2019-02-21T17:45:49.716Z,24.80
2019-02-21T17:46:49.719Z,25.00
2019-02-21T17:47:49.725Z,24.90
2019-02-21T17:48:49.737Z,27.10
2019-02-21T17:49:49.734Z,26.20
2019-02-21T17:50:49.745Z,27.50
2019-02-21T17:51:49.747Z,27.10
2019-02-21T17:52:49.753Z,25.60
2019-02-21T17:53:49.750Z,24.90
2019-02-21T17:54:49.770Z,24.30
2019-02-21T17:55:49.779Z,27.10
2019-02-21T17:56:49.799Z,26.00
2019-02-21T17:57:49.788Z,26.60
2019-02-21T17:58:49.798Z,25.10
2019-02-21T17:59:49.808Z,26.70
2019-02-21T18:00:49.805Z,24.90
2019-02-21T18:01:49.814Z,26.00
2019-02-21T18:02:49.822Z,27.60
2019-02-21T18:03:49.837Z,26.20
2019-02-21T18:04:49.841Z,25.40
2019-02-21T18:05:49.852Z,25.20
2019-02-21T18:06:49.840Z,25.80
2019-02-21T18:07:49.850Z,26.30
2019-02-21T18:08:49.857Z,20.60
2019-02-21T18:09:49.863Z,22.80
2019-02-21T18:10:49.874Z,24.40
2019-02-21T18:11:49.892Z,22.40
2019-02-21T18:12:50.045Z,18.70
2019-02-21T18:13:49.901Z,21.30
2019-02-21T18:14:49.904Z,18.80
2019-02-21T18:15:49.899Z,20.20
2019-02-21T18:16:49.909Z,22.30
2019-02-21T18:17:49.917Z,20.30
2019-02-21T18:18:49.925Z,18.40
2019-02-21T18:19:49.931Z,20.60
2019-02-21T18:20:49.940Z,19.40
2019-02-21T18:21:49.953Z,20.30
2019-02-21T18:22:49.950Z,19.00
2019-02-21T18:23:49.954Z,18.30
2019-02-21T18:24:49.962Z,19.90
2019-02-21T18:25:49.967Z,19.30
2019-02-21T18:26:49.962Z,20.10
2019-02-21T18:27:49.978Z,19.60
2019-02-21T18:28:49.998Z,20.00
2019-02-21T18:29:50.005Z,18.90
2019-02-21T18:30:50.063Z,18.90
2019-02-21T18:31:50.849Z,19.10
2019-02-21T18:32:50.011Z,18.90
2019-02-21T18:33:50.037Z,19.60
2019-02-21T18:34:50.029Z,18.50
2019-02-21T18:35:50.038Z,16.40
2019-02-21T18:36:50.039Z,19.20
2019-02-21T18:37:50.045Z,19.30
2019-02-21T18:38:50.052Z,17.90
2019-02-21T18:39:50.062Z,18.50
2019-02-21T18:40:50.068Z,18.00
2019-02-21T18:41:50.067Z,18.10
2019-02-21T18:42:50.075Z,19.00
2019-02-21T18:43:50.076Z,19.30
2019-02-21T18:44:50.092Z,18.20
2019-02-21T18:45:50.096Z,19.30
2019-02-21T18:46:50.100Z,18.80
2019-02-21T18:47:50.106Z,19.00
2019-02-21T18:48:50.116Z,20.30
2019-02-21T18:49:50.157Z,19.90
2019-02-21T18:50:50.129Z,20.90
2019-02-21T18:51:50.226Z,20.10
2019-02-21T18:52:50.144Z,21.60
2019-02-21T18:53:50.139Z,22.00
2019-02-21T18:54:50.172Z,22.20
2019-02-21T18:55:50.170Z,21.90
2019-02-21T18:56:50.165Z,22.10
2019-02-21T18:57:50.174Z,20.40
2019-02-21T18:58:50.236Z,22.40
2019-02-21T18:59:50.187Z,22.10
2019-02-21T19:00:50.188Z,22.50
2019-02-21T19:01:50.197Z,22.80
2019-02-21T19:02:50.204Z,22.90
2019-02-21T19:03:50.211Z,22.20
2019-02-21T19:04:50.216Z,20.80
2019-02-21T19:05:50.221Z,21.70
2019-02-21T19:06:50.225Z,21.90
2019-02-21T19:07:58.313Z,21.60
2019-02-21T19:08:50.253Z,21.90
2019-02-21T19:09:50.251Z,22.40
2019-02-21T19:10:50.255Z,22.20
2019-02-21T19:11:50.260Z,21.70
2019-02-21T19:12:50.256Z,21.90
2019-02-21T19:13:50.274Z,23.40
2019-02-21T19:14:50.276Z,22.90
2019-02-21T19:15:50.286Z,22.10
2019-02-21T19:16:50.295Z,22.60
2019-02-21T19:17:50.304Z,22.40
2019-02-21T19:18:50.304Z,23.80
2019-02-21T19:19:50.320Z,23.90
2019-02-21T19:20:50.311Z,23.20
2019-02-21T19:21:50.324Z,24.50
2019-02-21T19:22:50.322Z,24.00
2019-02-21T19:23:50.332Z,23.30
2019-02-21T19:24:50.350Z,23.20
2019-02-21T19:25:50.346Z,24.20
2019-02-21T19:26:50.354Z,24.70
2019-02-21T19:27:50.360Z,23.60
2019-02-21T19:28:50.374Z,26.10
2019-02-21T19:29:50.371Z,25.70
2019-02-21T19:30:50.371Z,30.20
2019-02-21T19:31:50.394Z,30.10
2019-02-21T19:32:50.385Z,25.90
2019-02-21T19:33:50.392Z,26.40
2019-02-21T19:34:50.392Z,26.70
2019-02-21T19:35:50.410Z,24.50
2019-02-21T19:36:50.419Z,28.90
2019-02-21T19:37:50.469Z,26.10
2019-02-21T19:38:50.433Z,26.50
2019-02-21T19:39:50.440Z,28.70
2019-02-21T19:40:50.443Z,28.00
2019-02-21T19:41:50.442Z,26.40
2019-02-21T19:42:50.448Z,27.20
2019-02-21T19:43:50.456Z,30.30
2019-02-21T19:44:50.462Z,27.50
2019-02-21T19:45:50.470Z,29.50
2019-02-21T19:46:50.475Z,31.10
2019-02-21T19:47:50.497Z,29.70
2019-02-21T19:48:50.491Z,31.30
2019-02-21T19:49:50.496Z,32.00